sensor_id;sensor_type;location;lat;lon;timestamp;P1;durP1;ratioP1;P2;durP2;ratioP2
41297;SDS011;27381;46.032;13.650;2023-02-02T00:00:33;39.30;;;18.48;;
41297;SDS011;27381;46.032;13.650;2023-02-02T00:02:59;47.33;;;19.48;;
41297;SDS011;27381;46.032;13.650;2023-02-02T00:05:24;41.05;;;18.95;;
41297;SDS011;27381;46.032;13.650;2023-02-02T00:07:49;44.60;;;20.48;;
41297;SDS011;27381;46.032;13.650;2023-02-02T00:10:15;37.15;;;16.52;;
41297;SDS011;27381;46.032;13.650;2023-02-02T00:12:41;38.30;;;17.15;;
41297;SDS011;27381;46.032;13.650;2023-02-02T00:15:07;38.00;;;19.02;;
41297;SDS011;27381;46.032;13.650;2023-02-02T00:17:32;45.80;;;18.85;;
41297;SDS011;27381;46.032;13.650;2023-02-02T00:19:57;47.95;;;19.05;;
41297;SDS011;27381;46.032;13.650;2023-02-02T00:22:23;47.47;;;18.80;;
41297;SDS011;27381;46.032;13.650;2023-02-02T00:24:48;41.58;;;20.10;;
41297;SDS011;27381;46.032;13.650;2023-02-02T00:27:14;47.78;;;18.25;;
41297;SDS011;27381;46.032;13.650;2023-02-02T00:29:39;43.45;;;18.63;;
41297;SDS011;27381;46.032;13.650;2023-02-02T00:32:04;38.67;;;19.05;;
41297;SDS011;27381;46.032;13.650;2023-02-02T00:34:30;58.60;;;21.20;;
41297;SDS011;27381;46.032;13.650;2023-02-02T00:36:55;44.20;;;18.33;;
41297;SDS011;27381;46.032;13.650;2023-02-02T00:39:21;42.75;;;21.10;;
41297;SDS011;27381;46.032;13.650;2023-02-02T00:41:49;43.67;;;19.27;;
41297;SDS011;27381;46.032;13.650;2023-02-02T00:44:14;29.92;;;15.15;;
41297;SDS011;27381;46.032;13.650;2023-02-02T00:46:59;36.50;;;15.93;;
41297;SDS011;27381;46.032;13.650;2023-02-02T00:49:24;51.53;;;21.13;;
41297;SDS011;27381;46.032;13.650;2023-02-02T00:51:49;58.92;;;21.13;;
41297;SDS011;27381;46.032;13.650;2023-02-02T00:54:15;40.67;;;18.27;;
41297;SDS011;27381;46.032;13.650;2023-02-02T00:56:40;39.13;;;19.60;;
41297;SDS011;27381;46.032;13.650;2023-02-02T00:59:06;35.67;;;15.68;;
41297;SDS011;27381;46.032;13.650;2023-02-02T01:01:31;27.20;;;15.30;;
41297;SDS011;27381;46.032;13.650;2023-02-02T01:03:57;38.00;;;18.00;;
41297;SDS011;27381;46.032;13.650;2023-02-02T01:06:23;34.85;;;16.48;;
41297;SDS011;27381;46.032;13.650;2023-02-02T01:08:48;31.80;;;13.75;;
41297;SDS011;27381;46.032;13.650;2023-02-02T01:11:15;38.78;;;16.42;;
41297;SDS011;27381;46.032;13.650;2023-02-02T01:13:40;38.25;;;16.92;;
41297;SDS011;27381;46.032;13.650;2023-02-02T01:16:06;35.72;;;15.55;;
41297;SDS011;27381;46.032;13.650;2023-02-02T01:18:31;43.72;;;18.45;;
41297;SDS011;27381;46.032;13.650;2023-02-02T01:21:01;44.55;;;18.65;;
41297;SDS011;27381;46.032;13.650;2023-02-02T01:23:27;44.22;;;16.98;;
41297;SDS011;27381;46.032;13.650;2023-02-02T01:25:57;39.63;;;17.77;;
41297;SDS011;27381;46.032;13.650;2023-02-02T01:28:23;42.83;;;19.77;;
41297;SDS011;27381;46.032;13.650;2023-02-02T01:30:49;44.90;;;16.83;;
41297;SDS011;27381;46.032;13.650;2023-02-02T01:33:15;46.08;;;21.23;;
41297;SDS011;27381;46.032;13.650;2023-02-02T01:35:44;42.97;;;20.90;;
41297;SDS011;27381;46.032;13.650;2023-02-02T01:38:09;35.55;;;16.42;;
41297;SDS011;27381;46.032;13.650;2023-02-02T01:40:35;38.33;;;18.38;;
41297;SDS011;27381;46.032;13.650;2023-02-02T01:43:00;36.78;;;16.17;;
41297;SDS011;27381;46.032;13.650;2023-02-02T01:45:29;47.70;;;19.15;;
41297;SDS011;27381;46.032;13.650;2023-02-02T01:47:55;42.72;;;18.35;;
41297;SDS011;27381;46.032;13.650;2023-02-02T01:50:23;44.35;;;19.98;;
41297;SDS011;27381;46.032;13.650;2023-02-02T01:52:50;42.90;;;18.10;;
41297;SDS011;27381;46.032;13.650;2023-02-02T01:55:17;45.53;;;18.35;;
41297;SDS011;27381;46.032;13.650;2023-02-02T01:57:49;41.38;;;16.65;;
41297;SDS011;27381;46.032;13.650;2023-02-02T02:00:16;36.15;;;16.60;;
41297;SDS011;27381;46.032;13.650;2023-02-02T02:02:44;30.10;;;16.10;;
41297;SDS011;27381;46.032;13.650;2023-02-02T02:05:12;49.10;;;18.63;;
41297;SDS011;27381;46.032;13.650;2023-02-02T02:07:39;43.60;;;19.88;;
41297;SDS011;27381;46.032;13.650;2023-02-02T02:10:05;36.28;;;15.13;;
41297;SDS011;27381;46.032;13.650;2023-02-02T02:12:30;42.00;;;18.65;;
41297;SDS011;27381;46.032;13.650;2023-02-02T02:14:56;42.08;;;20.40;;
41297;SDS011;27381;46.032;13.650;2023-02-02T02:39:30;40.35;;;18.08;;
41297;SDS011;27381;46.032;13.650;2023-02-02T02:41:59;47.92;;;19.83;;
41297;SDS011;27381;46.032;13.650;2023-02-02T02:44:27;49.05;;;21.50;;
41297;SDS011;27381;46.032;13.650;2023-02-02T02:46:53;54.75;;;21.20;;
41297;SDS011;27381;46.032;13.650;2023-02-02T02:49:19;40.97;;;17.05;;
41297;SDS011;27381;46.032;13.650;2023-02-02T02:51:48;35.92;;;17.77;;
41297;SDS011;27381;46.032;13.650;2023-02-02T02:54:35;40.80;;;18.23;;
41297;SDS011;27381;46.032;13.650;2023-02-02T03:05:07;40.90;;;17.25;;
41297;SDS011;27381;46.032;13.650;2023-02-02T03:10:00;31.73;;;15.65;;
41297;SDS011;27381;46.032;13.650;2023-02-02T03:12:26;40.08;;;17.85;;
41297;SDS011;27381;46.032;13.650;2023-02-02T03:14:51;32.65;;;15.68;;
41297;SDS011;27381;46.032;13.650;2023-02-02T03:17:17;29.08;;;12.95;;
41297;SDS011;27381;46.032;13.650;2023-02-02T03:19:42;31.13;;;15.30;;
41297;SDS011;27381;46.032;13.650;2023-02-02T03:22:08;28.38;;;13.55;;
41297;SDS011;27381;46.032;13.650;2023-02-02T03:24:33;29.65;;;13.68;;
41297;SDS011;27381;46.032;13.650;2023-02-02T03:26:59;28.65;;;14.32;;
41297;SDS011;27381;46.032;13.650;2023-02-02T03:29:24;34.58;;;16.10;;
41297;SDS011;27381;46.032;13.650;2023-02-02T03:31:49;23.98;;;13.15;;
41297;SDS011;27381;46.032;13.650;2023-02-02T03:34:15;29.75;;;14.25;;
41297;SDS011;27381;46.032;13.650;2023-02-02T03:36:40;30.73;;;14.18;;
41297;SDS011;27381;46.032;13.650;2023-02-02T03:39:06;38.50;;;15.73;;
41297;SDS011;27381;46.032;13.650;2023-02-02T03:41:31;30.30;;;13.93;;
41297;SDS011;27381;46.032;13.650;2023-02-02T03:43:57;25.08;;;13.57;;
41297;SDS011;27381;46.032;13.650;2023-02-02T03:46:22;25.35;;;12.77;;
41297;SDS011;27381;46.032;13.650;2023-02-02T03:48:47;24.98;;;12.90;;
41297;SDS011;27381;46.032;13.650;2023-02-02T03:51:13;32.35;;;15.65;;
41297;SDS011;27381;46.032;13.650;2023-02-02T03:53:39;32.95;;;12.88;;
41297;SDS011;27381;46.032;13.650;2023-02-02T03:56:08;32.20;;;14.95;;
41297;SDS011;27381;46.032;13.650;2023-02-02T03:58:33;32.53;;;16.70;;
41297;SDS011;27381;46.032;13.650;2023-02-02T04:01:06;27.33;;;12.95;;
41297;SDS011;27381;46.032;13.650;2023-02-02T04:03:32;28.92;;;12.48;;
41297;SDS011;27381;46.032;13.650;2023-02-02T04:05:57;20.48;;;13.27;;
41297;SDS011;27381;46.032;13.650;2023-02-02T04:08:23;21.48;;;11.32;;
41297;SDS011;27381;46.032;13.650;2023-02-02T04:10:48;24.35;;;12.27;;
41297;SDS011;27381;46.032;13.650;2023-02-02T04:13:13;30.35;;;14.45;;
41297;SDS011;27381;46.032;13.650;2023-02-02T04:15:39;25.25;;;12.32;;
41297;SDS011;27381;46.032;13.650;2023-02-02T04:18:04;23.98;;;11.98;;
41297;SDS011;27381;46.032;13.650;2023-02-02T04:20:30;25.55;;;14.35;;
41297;SDS011;27381;46.032;13.650;2023-02-02T04:22:55;26.45;;;12.07;;
41297;SDS011;27381;46.032;13.650;2023-02-02T04:25:20;30.98;;;12.45;;
41297;SDS011;27381;46.032;13.650;2023-02-02T04:27:46;26.13;;;15.50;;
41297;SDS011;27381;46.032;13.650;2023-02-02T04:30:11;28.70;;;14.75;;
41297;SDS011;27381;46.032;13.650;2023-02-02T04:32:37;26.98;;;14.07;;
41297;SDS011;27381;46.032;13.650;2023-02-02T04:35:02;38.15;;;14.75;;
41297;SDS011;27381;46.032;13.650;2023-02-02T04:37:29;31.27;;;14.30;;
41297;SDS011;27381;46.032;13.650;2023-02-02T04:39:55;31.88;;;15.05;;
41297;SDS011;27381;46.032;13.650;2023-02-02T04:42:20;28.05;;;12.18;;
41297;SDS011;27381;46.032;13.650;2023-02-02T04:44:46;25.48;;;13.35;;
41297;SDS011;27381;46.032;13.650;2023-02-02T04:47:11;28.70;;;12.82;;
41297;SDS011;27381;46.032;13.650;2023-02-02T04:49:36;30.45;;;14.48;;
41297;SDS011;27381;46.032;13.650;2023-02-02T04:52:02;27.08;;;13.02;;
41297;SDS011;27381;46.032;13.650;2023-02-02T04:54:27;24.85;;;12.45;;
41297;SDS011;27381;46.032;13.650;2023-02-02T04:56:53;29.50;;;12.60;;
41297;SDS011;27381;46.032;13.650;2023-02-02T04:59:18;21.85;;;12.23;;
41297;SDS011;27381;46.032;13.650;2023-02-02T05:01:44;30.10;;;12.35;;
41297;SDS011;27381;46.032;13.650;2023-02-02T05:04:09;27.45;;;13.85;;
41297;SDS011;27381;46.032;13.650;2023-02-02T05:06:35;34.13;;;15.13;;
41297;SDS011;27381;46.032;13.650;2023-02-02T05:09:00;25.58;;;13.00;;
41297;SDS011;27381;46.032;13.650;2023-02-02T05:11:26;31.90;;;13.02;;
41297;SDS011;27381;46.032;13.650;2023-02-02T05:13:52;34.05;;;16.52;;
41297;SDS011;27381;46.032;13.650;2023-02-02T05:16:18;33.55;;;12.95;;
41297;SDS011;27381;46.032;13.650;2023-02-02T05:18:47;23.65;;;11.77;;
41297;SDS011;27381;46.032;13.650;2023-02-02T05:21:13;35.08;;;13.25;;
41297;SDS011;27381;46.032;13.650;2023-02-02T05:23:38;30.55;;;13.40;;
41297;SDS011;27381;46.032;13.650;2023-02-02T05:26:03;27.23;;;13.40;;
41297;SDS011;27381;46.032;13.650;2023-02-02T05:28:29;22.92;;;14.25;;
41297;SDS011;27381;46.032;13.650;2023-02-02T05:30:54;27.35;;;12.93;;
41297;SDS011;27381;46.032;13.650;2023-02-02T05:33:20;27.58;;;15.30;;
41297;SDS011;27381;46.032;13.650;2023-02-02T05:35:45;31.08;;;14.15;;
41297;SDS011;27381;46.032;13.650;2023-02-02T05:38:11;30.92;;;13.13;;
41297;SDS011;27381;46.032;13.650;2023-02-02T05:40:37;29.67;;;15.98;;
41297;SDS011;27381;46.032;13.650;2023-02-02T05:43:02;27.50;;;12.00;;
41297;SDS011;27381;46.032;13.650;2023-02-02T05:45:28;19.85;;;13.90;;
41297;SDS011;27381;46.032;13.650;2023-02-02T05:47:53;27.33;;;14.20;;
41297;SDS011;27381;46.032;13.650;2023-02-02T05:50:20;27.05;;;14.05;;
41297;SDS011;27381;46.032;13.650;2023-02-02T05:52:45;29.70;;;12.88;;
41297;SDS011;27381;46.032;13.650;2023-02-02T05:55:11;23.98;;;13.20;;
41297;SDS011;27381;46.032;13.650;2023-02-02T05:57:36;29.60;;;13.63;;
41297;SDS011;27381;46.032;13.650;2023-02-02T06:00:02;29.77;;;15.00;;
41297;SDS011;27381;46.032;13.650;2023-02-02T06:02:37;27.20;;;13.30;;
41297;SDS011;27381;46.032;13.650;2023-02-02T06:05:02;26.17;;;12.75;;
41297;SDS011;27381;46.032;13.650;2023-02-02T06:07:28;33.25;;;14.48;;
41297;SDS011;27381;46.032;13.650;2023-02-02T06:09:53;24.58;;;12.38;;
41297;SDS011;27381;46.032;13.650;2023-02-02T06:12:19;27.98;;;14.82;;
41297;SDS011;27381;46.032;13.650;2023-02-02T06:14:44;33.88;;;13.57;;
41297;SDS011;27381;46.032;13.650;2023-02-02T06:17:10;30.42;;;14.10;;
41297;SDS011;27381;46.032;13.650;2023-02-02T06:19:35;24.15;;;13.65;;
41297;SDS011;27381;46.032;13.650;2023-02-02T06:22:01;32.72;;;13.88;;
41297;SDS011;27381;46.032;13.650;2023-02-02T06:24:26;34.70;;;14.75;;
41297;SDS011;27381;46.032;13.650;2023-02-02T06:26:52;21.60;;;11.93;;
41297;SDS011;27381;46.032;13.650;2023-02-02T06:29:17;21.30;;;12.50;;
41297;SDS011;27381;46.032;13.650;2023-02-02T06:31:43;26.83;;;11.85;;
41297;SDS011;27381;46.032;13.650;2023-02-02T06:34:09;33.10;;;13.38;;
41297;SDS011;27381;46.032;13.650;2023-02-02T06:36:37;30.13;;;13.35;;
41297;SDS011;27381;46.032;13.650;2023-02-02T06:39:03;27.67;;;14.43;;
41297;SDS011;27381;46.032;13.650;2023-02-02T06:41:30;24.00;;;14.30;;
41297;SDS011;27381;46.032;13.650;2023-02-02T06:43:55;23.25;;;12.77;;
41297;SDS011;27381;46.032;13.650;2023-02-02T06:46:21;29.35;;;13.23;;
41297;SDS011;27381;46.032;13.650;2023-02-02T06:48:46;29.83;;;12.95;;
41297;SDS011;27381;46.032;13.650;2023-02-02T06:51:12;26.50;;;13.35;;
41297;SDS011;27381;46.032;13.650;2023-02-02T06:53:38;26.85;;;13.45;;
41297;SDS011;27381;46.032;13.650;2023-02-02T06:56:04;32.17;;;14.65;;
41297;SDS011;27381;46.032;13.650;2023-02-02T06:58:30;22.23;;;11.45;;
41297;SDS011;27381;46.032;13.650;2023-02-02T07:01:02;25.88;;;13.23;;
41297;SDS011;27381;46.032;13.650;2023-02-02T07:03:28;26.40;;;12.73;;
41297;SDS011;27381;46.032;13.650;2023-02-02T07:05:54;30.70;;;12.68;;
41297;SDS011;27381;46.032;13.650;2023-02-02T07:08:19;22.10;;;13.40;;
41297;SDS011;27381;46.032;13.650;2023-02-02T07:10:45;29.35;;;12.68;;
41297;SDS011;27381;46.032;13.650;2023-02-02T07:13:11;27.90;;;13.40;;
41297;SDS011;27381;46.032;13.650;2023-02-02T07:15:39;25.52;;;11.40;;
41297;SDS011;27381;46.032;13.650;2023-02-02T07:18:05;29.25;;;13.70;;
41297;SDS011;27381;46.032;13.650;2023-02-02T07:20:30;29.98;;;13.25;;
41297;SDS011;27381;46.032;13.650;2023-02-02T07:22:55;24.35;;;12.10;;
41297;SDS011;27381;46.032;13.650;2023-02-02T07:25:21;23.73;;;10.15;;
41297;SDS011;27381;46.032;13.650;2023-02-02T07:27:46;21.88;;;12.30;;
41297;SDS011;27381;46.032;13.650;2023-02-02T07:30:12;25.63;;;11.32;;
41297;SDS011;27381;46.032;13.650;2023-02-02T07:32:38;26.85;;;14.00;;
41297;SDS011;27381;46.032;13.650;2023-02-02T07:35:03;25.48;;;13.98;;
41297;SDS011;27381;46.032;13.650;2023-02-02T07:37:29;30.25;;;14.57;;
41297;SDS011;27381;46.032;13.650;2023-02-02T07:39:54;29.02;;;12.23;;
41297;SDS011;27381;46.032;13.650;2023-02-02T07:42:20;40.25;;;13.13;;
41297;SDS011;27381;46.032;13.650;2023-02-02T07:44:45;25.05;;;12.50;;
41297;SDS011;27381;46.032;13.650;2023-02-02T07:47:10;21.92;;;11.82;;
41297;SDS011;27381;46.032;13.650;2023-02-02T07:49:36;22.13;;;11.32;;
41297;SDS011;27381;46.032;13.650;2023-02-02T07:52:01;31.10;;;13.50;;
41297;SDS011;27381;46.032;13.650;2023-02-02T07:54:27;22.55;;;13.48;;
41297;SDS011;27381;46.032;13.650;2023-02-02T07:56:52;33.80;;;12.35;;
41297;SDS011;27381;46.032;13.650;2023-02-02T07:59:18;25.60;;;13.05;;
41297;SDS011;27381;46.032;13.650;2023-02-02T08:01:43;31.10;;;13.23;;
41297;SDS011;27381;46.032;13.650;2023-02-02T08:04:08;25.55;;;12.90;;
41297;SDS011;27381;46.032;13.650;2023-02-02T08:06:35;23.73;;;11.63;;
41297;SDS011;27381;46.032;13.650;2023-02-02T08:09:02;24.85;;;11.57;;
41297;SDS011;27381;46.032;13.650;2023-02-02T08:11:28;25.08;;;12.30;;
41297;SDS011;27381;46.032;13.650;2023-02-02T08:13:54;25.02;;;10.75;;
41297;SDS011;27381;46.032;13.650;2023-02-02T08:16:20;26.08;;;12.40;;
41297;SDS011;27381;46.032;13.650;2023-02-02T08:18:46;25.50;;;11.07;;
41297;SDS011;27381;46.032;13.650;2023-02-02T08:21:11;16.77;;;9.85;;
41297;SDS011;27381;46.032;13.650;2023-02-02T08:23:37;25.48;;;14.13;;
41297;SDS011;27381;46.032;13.650;2023-02-02T08:26:07;28.23;;;14.60;;
41297;SDS011;27381;46.032;13.650;2023-02-02T08:28:32;26.65;;;12.75;;
41297;SDS011;27381;46.032;13.650;2023-02-02T08:31:06;20.23;;;11.40;;
41297;SDS011;27381;46.032;13.650;2023-02-02T08:33:31;25.63;;;9.90;;
41297;SDS011;27381;46.032;13.650;2023-02-02T08:35:57;34.40;;;14.00;;
41297;SDS011;27381;46.032;13.650;2023-02-02T08:38:23;31.73;;;12.48;;
41297;SDS011;27381;46.032;13.650;2023-02-02T08:40:48;27.13;;;13.13;;
41297;SDS011;27381;46.032;13.650;2023-02-02T08:43:13;25.40;;;11.77;;
41297;SDS011;27381;46.032;13.650;2023-02-02T08:45:41;27.00;;;12.13;;
41297;SDS011;27381;46.032;13.650;2023-02-02T08:48:06;26.00;;;13.10;;
41297;SDS011;27381;46.032;13.650;2023-02-02T08:50:32;30.10;;;12.00;;
41297;SDS011;27381;46.032;13.650;2023-02-02T08:52:57;39.72;;;13.43;;
41297;SDS011;27381;46.032;13.650;2023-02-02T08:55:23;25.52;;;11.73;;
41297;SDS011;27381;46.032;13.650;2023-02-02T08:57:48;26.02;;;11.07;;
41297;SDS011;27381;46.032;13.650;2023-02-02T09:00:14;19.45;;;10.02;;
41297;SDS011;27381;46.032;13.650;2023-02-02T09:02:39;22.92;;;11.45;;
41297;SDS011;27381;46.032;13.650;2023-02-02T09:05:05;18.60;;;10.63;;
41297;SDS011;27381;46.032;13.650;2023-02-02T09:07:31;26.88;;;12.80;;
41297;SDS011;27381;46.032;13.650;2023-02-02T09:09:56;24.30;;;12.80;;
41297;SDS011;27381;46.032;13.650;2023-02-02T09:12:22;19.38;;;11.00;;
41297;SDS011;27381;46.032;13.650;2023-02-02T09:14:48;27.25;;;11.40;;
41297;SDS011;27381;46.032;13.650;2023-02-02T09:17:13;22.20;;;10.57;;
41297;SDS011;27381;46.032;13.650;2023-02-02T09:19:39;26.45;;;12.07;;
41297;SDS011;27381;46.032;13.650;2023-02-02T09:22:04;35.00;;;14.88;;
41297;SDS011;27381;46.032;13.650;2023-02-02T09:24:30;19.95;;;11.27;;
41297;SDS011;27381;46.032;13.650;2023-02-02T09:26:55;19.45;;;11.40;;
41297;SDS011;27381;46.032;13.650;2023-02-02T09:29:20;26.00;;;13.18;;
41297;SDS011;27381;46.032;13.650;2023-02-02T09:31:46;29.63;;;13.57;;
41297;SDS011;27381;46.032;13.650;2023-02-02T09:34:12;27.35;;;12.07;;
41297;SDS011;27381;46.032;13.650;2023-02-02T09:36:38;26.38;;;12.88;;
41297;SDS011;27381;46.032;13.650;2023-02-02T09:39:04;23.27;;;12.52;;
41297;SDS011;27381;46.032;13.650;2023-02-02T09:44:24;24.48;;;11.68;;
41297;SDS011;27381;46.032;13.650;2023-02-02T09:49:24;24.90;;;11.73;;
41297;SDS011;27381;46.032;13.650;2023-02-02T09:51:53;27.77;;;14.00;;
41297;SDS011;27381;46.032;13.650;2023-02-02T09:54:26;23.83;;;11.25;;
41297;SDS011;27381;46.032;13.650;2023-02-02T09:56:54;30.73;;;11.77;;
41297;SDS011;27381;46.032;13.650;2023-02-02T09:59:22;17.25;;;11.93;;
41297;SDS011;27381;46.032;13.650;2023-02-02T10:01:49;31.75;;;13.10;;
41297;SDS011;27381;46.032;13.650;2023-02-02T10:06:45;18.58;;;9.50;;
41297;SDS011;27381;46.032;13.650;2023-02-02T10:14:14;26.48;;;12.68;;
41297;SDS011;27381;46.032;13.650;2023-02-02T10:16:41;23.77;;;12.90;;
41297;SDS011;27381;46.032;13.650;2023-02-02T10:19:10;16.00;;;9.60;;
41297;SDS011;27381;46.032;13.650;2023-02-02T10:21:38;32.47;;;12.77;;
41297;SDS011;27381;46.032;13.650;2023-02-02T10:24:04;13.15;;;9.80;;
41297;SDS011;27381;46.032;13.650;2023-02-02T10:26:37;35.97;;;16.92;;
41297;SDS011;27381;46.032;13.650;2023-02-02T10:34:19;38.20;;;17.50;;
41297;SDS011;27381;46.032;13.650;2023-02-02T10:36:49;43.67;;;19.45;;
41297;SDS011;27381;46.032;13.650;2023-02-02T10:41:51;33.92;;;18.38;;
41297;SDS011;27381;46.032;13.650;2023-02-02T10:47:20;43.15;;;20.40;;
41297;SDS011;27381;46.032;13.650;2023-02-02T10:49:47;50.22;;;20.52;;
41297;SDS011;27381;46.032;13.650;2023-02-02T10:52:16;58.22;;;21.80;;
41297;SDS011;27381;46.032;13.650;2023-02-02T10:54:49;48.00;;;20.10;;
41297;SDS011;27381;46.032;13.650;2023-02-02T10:57:17;30.52;;;12.13;;
41297;SDS011;27381;46.032;13.650;2023-02-02T10:59:48;45.42;;;19.02;;
41297;SDS011;27381;46.032;13.650;2023-02-02T11:02:17;41.17;;;16.30;;
41297;SDS011;27381;46.032;13.650;2023-02-02T11:04:42;40.22;;;17.55;;
41297;SDS011;27381;46.032;13.650;2023-02-02T11:07:26;51.95;;;20.67;;
41297;SDS011;27381;46.032;13.650;2023-02-02T11:09:51;47.42;;;20.45;;
41297;SDS011;27381;46.032;13.650;2023-02-02T11:15:00;46.83;;;14.45;;
41297;SDS011;27381;46.032;13.650;2023-02-02T11:17:29;47.80;;;21.50;;
41297;SDS011;27381;46.032;13.650;2023-02-02T11:19:55;40.97;;;15.93;;
41297;SDS011;27381;46.032;13.650;2023-02-02T11:22:28;54.33;;;19.42;;
41297;SDS011;27381;46.032;13.650;2023-02-02T11:24:54;44.17;;;17.88;;
41297;SDS011;27381;46.032;13.650;2023-02-02T11:27:41;58.50;;;22.25;;
41297;SDS011;27381;46.032;13.650;2023-02-02T11:30:11;35.17;;;19.95;;
41297;SDS011;27381;46.032;13.650;2023-02-02T11:32:45;42.83;;;20.98;;
41297;SDS011;27381;46.032;13.650;2023-02-02T11:35:18;43.20;;;18.80;;
41297;SDS011;27381;46.032;13.650;2023-02-02T11:42:46;30.52;;;14.30;;
41297;SDS011;27381;46.032;13.650;2023-02-02T11:45:21;34.72;;;17.08;;
41297;SDS011;27381;46.032;13.650;2023-02-02T11:47:49;38.17;;;17.92;;
41297;SDS011;27381;46.032;13.650;2023-02-02T11:50:19;24.00;;;7.70;;
41297;SDS011;27381;46.032;13.650;2023-02-02T11:52:47;39.45;;;17.25;;
41297;SDS011;27381;46.032;13.650;2023-02-02T11:55:16;45.13;;;19.20;;
41297;SDS011;27381;46.032;13.650;2023-02-02T11:58:08;42.45;;;18.70;;
41297;SDS011;27381;46.032;13.650;2023-02-02T12:00:27;26.85;;;15.63;;
41297;SDS011;27381;46.032;13.650;2023-02-02T12:02:56;33.25;;;14.45;;
41297;SDS011;27381;46.032;13.650;2023-02-02T12:05:33;54.75;;;22.63;;
41297;SDS011;27381;46.032;13.650;2023-02-02T12:07:59;43.70;;;19.80;;
41297;SDS011;27381;46.032;13.650;2023-02-02T12:10:26;33.42;;;14.70;;
41297;SDS011;27381;46.032;13.650;2023-02-02T12:12:59;42.10;;;20.05;;
41297;SDS011;27381;46.032;13.650;2023-02-02T12:18:14;49.85;;;19.05;;
41297;SDS011;27381;46.032;13.650;2023-02-02T12:23:49;45.65;;;19.27;;
41297;SDS011;27381;46.032;13.650;2023-02-02T12:26:22;41.15;;;15.93;;
41297;SDS011;27381;46.032;13.650;2023-02-02T12:52:13;30.88;;;13.07;;
41297;SDS011;27381;46.032;13.650;2023-02-02T13:09:20;37.88;;;18.33;;
41297;SDS011;27381;46.032;13.650;2023-02-02T13:11:54;19.52;;;11.00;;
41297;SDS011;27381;46.032;13.650;2023-02-02T13:16:50;41.75;;;13.88;;
41297;SDS011;27381;46.032;13.650;2023-02-02T13:19:23;42.22;;;20.75;;
41297;SDS011;27381;46.032;13.650;2023-02-02T13:21:51;31.30;;;17.88;;
41297;SDS011;27381;46.032;13.650;2023-02-02T13:24:20;46.00;;;19.90;;
41297;SDS011;27381;46.032;13.650;2023-02-02T13:26:48;34.30;;;17.15;;
41297;SDS011;27381;46.032;13.650;2023-02-02T13:29:18;9.20;;;6.40;;
41297;SDS011;27381;46.032;13.650;2023-02-02T13:31:50;25.10;;;14.00;;
41297;SDS011;27381;46.032;13.650;2023-02-02T13:36:58;39.22;;;16.73;;
41297;SDS011;27381;46.032;13.650;2023-02-02T13:39:37;47.67;;;20.85;;
41297;SDS011;27381;46.032;13.650;2023-02-02T13:42:04;25.85;;;14.52;;
41297;SDS011;27381;46.032;13.650;2023-02-02T13:44:43;49.35;;;20.70;;
41297;SDS011;27381;46.032;13.650;2023-02-02T13:47:18;38.05;;;16.38;;
41297;SDS011;27381;46.032;13.650;2023-02-02T13:49:47;44.38;;;17.88;;
41297;SDS011;27381;46.032;13.650;2023-02-02T14:00:24;53.05;;;19.92;;
41297;SDS011;27381;46.032;13.650;2023-02-02T14:07:53;19.25;;;9.27;;
41297;SDS011;27381;46.032;13.650;2023-02-02T14:12:45;47.05;;;20.60;;
41297;SDS011;27381;46.032;13.650;2023-02-02T14:15:11;49.58;;;20.73;;
41297;SDS011;27381;46.032;13.650;2023-02-02T14:20:04;37.50;;;19.05;;
41297;SDS011;27381;46.032;13.650;2023-02-02T14:27:53;56.67;;;22.02;;
41297;SDS011;27381;46.032;13.650;2023-02-02T14:30:21;46.33;;;20.17;;
41297;SDS011;27381;46.032;13.650;2023-02-02T14:32:47;56.58;;;25.77;;
41297;SDS011;27381;46.032;13.650;2023-02-02T14:48:38;47.65;;;22.00;;
41297;SDS011;27381;46.032;13.650;2023-02-02T14:51:24;49.15;;;21.23;;
41297;SDS011;27381;46.032;13.650;2023-02-02T14:53:55;55.00;;;21.63;;
41297;SDS011;27381;46.032;13.650;2023-02-02T14:56:42;40.33;;;18.45;;
41297;SDS011;27381;46.032;13.650;2023-02-02T14:59:21;36.08;;;19.15;;
41297;SDS011;27381;46.032;13.650;2023-02-02T15:01:52;52.03;;;20.60;;
41297;SDS011;27381;46.032;13.650;2023-02-02T15:06:44;45.20;;;22.05;;
41297;SDS011;27381;46.032;13.650;2023-02-02T15:19:34;48.92;;;19.10;;
41297;SDS011;27381;46.032;13.650;2023-02-02T15:22:16;46.95;;;18.50;;
41297;SDS011;27381;46.032;13.650;2023-02-02T15:24:47;47.50;;;20.10;;
41297;SDS011;27381;46.032;13.650;2023-02-02T15:27:17;34.85;;;17.42;;
41297;SDS011;27381;46.032;13.650;2023-02-02T15:29:44;39.55;;;17.77;;
41297;SDS011;27381;46.032;13.650;2023-02-02T15:32:12;50.15;;;20.92;;
41297;SDS011;27381;46.032;13.650;2023-02-02T15:34:50;50.90;;;18.65;;
41297;SDS011;27381;46.032;13.650;2023-02-02T15:37:21;42.63;;;18.00;;
41297;SDS011;27381;46.032;13.650;2023-02-02T15:39:53;47.88;;;20.08;;
41297;SDS011;27381;46.032;13.650;2023-02-02T15:42:25;37.92;;;17.15;;
41297;SDS011;27381;46.032;13.650;2023-02-02T15:47:53;42.40;;;18.25;;
41297;SDS011;27381;46.032;13.650;2023-02-02T15:50:19;45.50;;;20.73;;
41297;SDS011;27381;46.032;13.650;2023-02-02T15:52:46;41.70;;;18.27;;
41297;SDS011;27381;46.032;13.650;2023-02-02T15:55:34;42.08;;;19.92;;
41297;SDS011;27381;46.032;13.650;2023-02-02T15:57:59;46.20;;;18.00;;
41297;SDS011;27381;46.032;13.650;2023-02-02T16:02:56;45.85;;;19.38;;
41297;SDS011;27381;46.032;13.650;2023-02-02T16:05:23;56.22;;;21.48;;
41297;SDS011;27381;46.032;13.650;2023-02-02T16:07:49;50.00;;;20.30;;
41297;SDS011;27381;46.032;13.650;2023-02-02T16:10:17;44.38;;;18.75;;
41297;SDS011;27381;46.032;13.650;2023-02-02T16:12:43;50.55;;;19.55;;
41297;SDS011;27381;46.032;13.650;2023-02-02T16:15:20;47.13;;;21.65;;
41297;SDS011;27381;46.032;13.650;2023-02-02T16:17:56;47.25;;;18.30;;
41297;SDS011;27381;46.032;13.650;2023-02-02T16:20:22;50.83;;;17.92;;
41297;SDS011;27381;46.032;13.650;2023-02-02T16:22:47;43.08;;;19.20;;
41297;SDS011;27381;46.032;13.650;2023-02-02T16:25:15;48.50;;;19.17;;
41297;SDS011;27381;46.032;13.650;2023-02-02T16:27:44;51.45;;;19.55;;
41297;SDS011;27381;46.032;13.650;2023-02-02T16:30:31;49.97;;;19.20;;
41297;SDS011;27381;46.032;13.650;2023-02-02T16:32:57;52.55;;;22.33;;
41297;SDS011;27381;46.032;13.650;2023-02-02T16:35:33;49.10;;;21.83;;
41297;SDS011;27381;46.032;13.650;2023-02-02T16:38:12;49.03;;;22.55;;
41297;SDS011;27381;46.032;13.650;2023-02-02T16:40:37;51.42;;;21.77;;
41297;SDS011;27381;46.032;13.650;2023-02-02T16:45:39;44.60;;;20.73;;
41297;SDS011;27381;46.032;13.650;2023-02-02T16:49:13;51.13;;;19.98;;
41297;SDS011;27381;46.032;13.650;2023-02-02T16:51:03;41.92;;;18.60;;
41297;SDS011;27381;46.032;13.650;2023-02-02T16:53:30;57.78;;;23.15;;
41297;SDS011;27381;46.032;13.650;2023-02-02T16:55:56;52.33;;;22.25;;
41297;SDS011;27381;46.032;13.650;2023-02-02T16:58:24;53.17;;;21.15;;
41297;SDS011;27381;46.032;13.650;2023-02-02T17:03:18;45.58;;;17.65;;